sensor_id;sensor_type;location;lat;lon;timestamp;P1;durP1;ratioP1;P2;durP2;ratioP2
49710;SDS011;35602;44.534;18.696;2022-09-16T00:00:36;26.00;;;21.15;;
49710;SDS011;35602;44.534;18.696;2022-09-16T00:05:40;23.27;;;20.70;;
49710;SDS011;35602;44.534;18.696;2022-09-16T00:10:46;25.10;;;20.65;;
49710;SDS011;35602;44.534;18.696;2022-09-16T00:15:48;23.83;;;20.00;;
49710;SDS011;35602;44.534;18.696;2022-09-16T00:20:54;23.30;;;19.83;;
49710;SDS011;35602;44.534;18.696;2022-09-16T00:25:55;24.52;;;20.25;;
49710;SDS011;35602;44.534;18.696;2022-09-16T00:30:59;21.50;;;19.02;;
49710;SDS011;35602;44.534;18.696;2022-09-16T00:37:01;22.02;;;19.27;;
49710;SDS011;35602;44.534;18.696;2022-09-16T00:42:06;21.12;;;18.65;;
49710;SDS011;35602;44.534;18.696;2022-09-16T00:47:11;22.27;;;19.58;;
49710;SDS011;35602;44.534;18.696;2022-09-16T00:52:15;22.27;;;18.67;;
49710;SDS011;35602;44.534;18.696;2022-09-16T00:57:18;22.05;;;18.73;;
49710;SDS011;35602;44.534;18.696;2022-09-16T01:02:19;19.62;;;17.52;;
49710;SDS011;35602;44.534;18.696;2022-09-16T01:07:25;20.37;;;18.15;;
49710;SDS011;35602;44.534;18.696;2022-09-16T01:12:32;22.62;;;18.73;;
49710;SDS011;35602;44.534;18.696;2022-09-16T01:17:54;22.00;;;18.90;;
49710;SDS011;35602;44.534;18.696;2022-09-16T01:23:17;21.25;;;18.02;;
49710;SDS011;35602;44.534;18.696;2022-09-16T01:28:53;19.80;;;17.30;;
49710;SDS011;35602;44.534;18.696;2022-09-16T01:44:38;19.20;;;16.67;;
49710;SDS011;35602;44.534;18.696;2022-09-16T01:49:54;18.17;;;16.23;;
49710;SDS011;35602;44.534;18.696;2022-09-16T01:55:12;19.75;;;16.70;;
49710;SDS011;35602;44.534;18.696;2022-09-16T02:00:20;18.12;;;16.17;;
49710;SDS011;35602;44.534;18.696;2022-09-16T02:05:30;18.37;;;16.45;;
49710;SDS011;35602;44.534;18.696;2022-09-16T02:10:49;18.20;;;15.68;;
49710;SDS011;35602;44.534;18.696;2022-09-16T02:15:56;17.00;;;15.18;;
49710;SDS011;35602;44.534;18.696;2022-09-16T02:21:01;17.83;;;15.43;;
49710;SDS011;35602;44.534;18.696;2022-09-16T02:26:07;17.60;;;15.27;;
49710;SDS011;35602;44.534;18.696;2022-09-16T02:31:10;18.55;;;14.63;;
49710;SDS011;35602;44.534;18.696;2022-09-16T02:36:14;17.08;;;14.93;;
49710;SDS011;35602;44.534;18.696;2022-09-16T02:41:22;17.35;;;14.98;;
49710;SDS011;35602;44.534;18.696;2022-09-16T02:46:58;19.85;;;15.85;;
49710;SDS011;35602;44.534;18.696;2022-09-16T02:59:24;16.15;;;14.02;;
49710;SDS011;35602;44.534;18.696;2022-09-16T03:04:25;16.40;;;14.68;;
49710;SDS011;35602;44.534;18.696;2022-09-16T03:09:28;15.68;;;13.98;;
49710;SDS011;35602;44.534;18.696;2022-09-16T03:21:39;16.77;;;14.15;;
49710;SDS011;35602;44.534;18.696;2022-09-16T03:26:56;15.98;;;14.27;;
49710;SDS011;35602;44.534;18.696;2022-09-16T03:32:20;14.80;;;13.15;;
49710;SDS011;35602;44.534;18.696;2022-09-16T03:37:32;14.80;;;13.23;;
49710;SDS011;35602;44.534;18.696;2022-09-16T03:42:37;14.15;;;12.70;;
49710;SDS011;35602;44.534;18.696;2022-09-16T03:47:39;16.20;;;13.02;;
49710;SDS011;35602;44.534;18.696;2022-09-16T03:52:40;15.05;;;13.18;;
49710;SDS011;35602;44.534;18.696;2022-09-16T03:57:41;15.32;;;12.52;;
49710;SDS011;35602;44.534;18.696;2022-09-16T04:02:41;13.90;;;11.93;;
49710;SDS011;35602;44.534;18.696;2022-09-16T04:07:42;14.40;;;12.90;;
49710;SDS011;35602;44.534;18.696;2022-09-16T04:12:43;14.45;;;12.32;;
49710;SDS011;35602;44.534;18.696;2022-09-16T04:17:44;13.05;;;11.63;;
49710;SDS011;35602;44.534;18.696;2022-09-16T04:22:45;17.33;;;12.10;;
49710;SDS011;35602;44.534;18.696;2022-09-16T04:27:46;14.57;;;12.27;;
49710;SDS011;35602;44.534;18.696;2022-09-16T04:32:51;14.38;;;11.52;;
49710;SDS011;35602;44.534;18.696;2022-09-16T04:37:55;12.32;;;11.02;;
49710;SDS011;35602;44.534;18.696;2022-09-16T04:42:57;13.90;;;10.90;;
49710;SDS011;35602;44.534;18.696;2022-09-16T04:47:58;13.35;;;11.43;;
49710;SDS011;35602;44.534;18.696;2022-09-16T04:52:59;11.93;;;10.73;;
49710;SDS011;35602;44.534;18.696;2022-09-16T04:58:00;12.02;;;10.80;;
49710;SDS011;35602;44.534;18.696;2022-09-16T05:03:01;11.90;;;10.70;;
49710;SDS011;35602;44.534;18.696;2022-09-16T05:08:01;12.18;;;10.85;;
49710;SDS011;35602;44.534;18.696;2022-09-16T05:13:02;13.18;;;10.73;;
49710;SDS011;35602;44.534;18.696;2022-09-16T05:18:03;12.27;;;10.75;;
49710;SDS011;35602;44.534;18.696;2022-09-16T05:23:04;12.10;;;10.77;;
49710;SDS011;35602;44.534;18.696;2022-09-16T05:28:05;11.77;;;10.15;;
49710;SDS011;35602;44.534;18.696;2022-09-16T05:33:06;12.65;;;11.15;;
49710;SDS011;35602;44.534;18.696;2022-09-16T05:38:07;12.00;;;10.30;;
49710;SDS011;35602;44.534;18.696;2022-09-16T05:43:08;11.57;;;10.38;;
49710;SDS011;35602;44.534;18.696;2022-09-16T05:48:08;12.98;;;10.77;;
49710;SDS011;35602;44.534;18.696;2022-09-16T05:53:09;10.68;;;9.57;;
49710;SDS011;35602;44.534;18.696;2022-09-16T05:58:10;11.15;;;9.77;;
49710;SDS011;35602;44.534;18.696;2022-09-16T06:03:11;13.77;;;10.00;;
49710;SDS011;35602;44.534;18.696;2022-09-16T06:08:12;13.68;;;10.27;;
49710;SDS011;35602;44.534;18.696;2022-09-16T06:13:12;11.07;;;9.23;;
49710;SDS011;35602;44.534;18.696;2022-09-16T06:18:13;12.00;;;9.68;;
49710;SDS011;35602;44.534;18.696;2022-09-16T06:23:15;11.63;;;10.10;;
49710;SDS011;35602;44.534;18.696;2022-09-16T06:28:16;11.65;;;9.95;;
49710;SDS011;35602;44.534;18.696;2022-09-16T06:33:17;11.38;;;9.60;;
49710;SDS011;35602;44.534;18.696;2022-09-16T06:38:18;12.15;;;10.05;;
49710;SDS011;35602;44.534;18.696;2022-09-16T06:43:19;11.20;;;9.68;;
49710;SDS011;35602;44.534;18.696;2022-09-16T06:48:19;12.40;;;10.60;;
49710;SDS011;35602;44.534;18.696;2022-09-16T06:53:21;13.57;;;10.15;;
49710;SDS011;35602;44.534;18.696;2022-09-16T06:58:21;27.52;;;16.75;;
49710;SDS011;35602;44.534;18.696;2022-09-16T07:03:22;26.40;;;15.30;;
49710;SDS011;35602;44.534;18.696;2022-09-16T07:08:23;21.92;;;14.13;;
49710;SDS011;35602;44.534;18.696;2022-09-16T07:13:24;27.87;;;16.92;;
49710;SDS011;35602;44.534;18.696;2022-09-16T07:18:30;43.83;;;26.17;;
49710;SDS011;35602;44.534;18.696;2022-09-16T07:23:32;34.25;;;22.17;;
49710;SDS011;35602;44.534;18.696;2022-09-16T07:28:35;33.22;;;21.35;;
49710;SDS011;35602;44.534;18.696;2022-09-16T07:33:37;30.08;;;18.73;;
49710;SDS011;35602;44.534;18.696;2022-09-16T07:38:39;28.35;;;19.23;;
49710;SDS011;35602;44.534;18.696;2022-09-16T07:43:41;42.03;;;25.33;;
49710;SDS011;35602;44.534;18.696;2022-09-16T07:48:42;44.08;;;26.42;;
49710;SDS011;35602;44.534;18.696;2022-09-16T07:53:44;37.35;;;25.23;;
49710;SDS011;35602;44.534;18.696;2022-09-16T07:58:46;33.30;;;23.92;;
49710;SDS011;35602;44.534;18.696;2022-09-16T08:03:47;31.00;;;23.10;;
49710;SDS011;35602;44.534;18.696;2022-09-16T08:08:51;25.50;;;18.00;;
49710;SDS011;35602;44.534;18.696;2022-09-16T08:13:53;23.92;;;17.80;;
49710;SDS011;35602;44.534;18.696;2022-09-16T08:18:57;25.30;;;18.12;;
49710;SDS011;35602;44.534;18.696;2022-09-16T08:23:58;30.77;;;21.30;;
49710;SDS011;35602;44.534;18.696;2022-09-16T08:28:59;32.70;;;20.15;;
49710;SDS011;35602;44.534;18.696;2022-09-16T08:33:59;28.00;;;19.67;;
49710;SDS011;35602;44.534;18.696;2022-09-16T08:39:00;55.75;;;28.02;;
49710;SDS011;35602;44.534;18.696;2022-09-16T08:44:08;46.42;;;26.62;;
49710;SDS011;35602;44.534;18.696;2022-09-16T08:49:40;52.47;;;32.72;;
49710;SDS011;35602;44.534;18.696;2022-09-16T08:54:45;49.42;;;30.65;;
49710;SDS011;35602;44.534;18.696;2022-09-16T08:59:54;54.08;;;31.25;;
49710;SDS011;35602;44.534;18.696;2022-09-16T09:05:00;49.33;;;30.40;;
49710;SDS011;35602;44.534;18.696;2022-09-16T09:10:08;45.40;;;30.35;;
49710;SDS011;35602;44.534;18.696;2022-09-16T09:15:33;48.83;;;30.27;;
49710;SDS011;35602;44.534;18.696;2022-09-16T09:20:49;49.42;;;29.23;;
49710;SDS011;35602;44.534;18.696;2022-09-16T09:51:44;37.95;;;24.65;;
49710;SDS011;35602;44.534;18.696;2022-09-16T10:02:43;33.85;;;25.73;;
49710;SDS011;35602;44.534;18.696;2022-09-16T10:07:47;34.80;;;24.45;;
49710;SDS011;35602;44.534;18.696;2022-09-16T10:12:51;31.73;;;23.55;;
49710;SDS011;35602;44.534;18.696;2022-09-16T10:17:52;35.00;;;22.70;;
49710;SDS011;35602;44.534;18.696;2022-09-16T10:22:57;29.63;;;21.67;;
49710;SDS011;35602;44.534;18.696;2022-09-16T10:28:03;31.52;;;22.35;;
49710;SDS011;35602;44.534;18.696;2022-09-16T10:33:21;43.13;;;24.40;;
49710;SDS011;35602;44.534;18.696;2022-09-16T10:38:52;36.53;;;25.33;;
49710;SDS011;35602;44.534;18.696;2022-09-16T10:43:59;51.45;;;37.95;;
49710;SDS011;35602;44.534;18.696;2022-09-16T10:49:09;107.37;;;86.75;;
49710;SDS011;35602;44.534;18.696;2022-09-16T10:54:21;64.87;;;49.83;;
49710;SDS011;35602;44.534;18.696;2022-09-16T10:59:27;64.57;;;48.67;;
49710;SDS011;35602;44.534;18.696;2022-09-16T11:20:27;45.03;;;32.85;;
49710;SDS011;35602;44.534;18.696;2022-09-16T11:30:39;43.45;;;31.10;;
49710;SDS011;35602;44.534;18.696;2022-09-16T11:37:17;36.75;;;28.25;;
49710;SDS011;35602;44.534;18.696;2022-09-16T11:42:34;35.47;;;27.27;;
49710;SDS011;35602;44.534;18.696;2022-09-16T11:56:10;40.65;;;29.08;;
49710;SDS011;35602;44.534;18.696;2022-09-16T12:01:25;37.33;;;29.25;;
49710;SDS011;35602;44.534;18.696;2022-09-16T12:06:36;34.93;;;27.93;;
49710;SDS011;35602;44.534;18.696;2022-09-16T12:11:46;37.97;;;27.75;;
49710;SDS011;35602;44.534;18.696;2022-09-16T12:16:58;35.45;;;28.08;;
49710;SDS011;35602;44.534;18.696;2022-09-16T12:22:12;30.25;;;23.60;;
49710;SDS011;35602;44.534;18.696;2022-09-16T12:27:32;36.67;;;24.20;;
49710;SDS011;35602;44.534;18.696;2022-09-16T12:32:53;27.98;;;21.65;;
49710;SDS011;35602;44.534;18.696;2022-09-16T12:38:00;26.30;;;19.15;;
49710;SDS011;35602;44.534;18.696;2022-09-16T12:53:56;26.33;;;21.37;;
49710;SDS011;35602;44.534;18.696;2022-09-16T12:59:20;28.08;;;20.95;;
49710;SDS011;35602;44.534;18.696;2022-09-16T13:05:08;28.95;;;20.48;;
49710;SDS011;35602;44.534;18.696;2022-09-16T13:10:17;30.52;;;22.10;;
49710;SDS011;35602;44.534;18.696;2022-09-16T13:15:29;31.62;;;18.83;;
49710;SDS011;35602;44.534;18.696;2022-09-16T13:20:34;25.60;;;16.73;;
49710;SDS011;35602;44.534;18.696;2022-09-16T13:25:57;25.05;;;15.75;;
49710;SDS011;35602;44.534;18.696;2022-09-16T13:31:16;16.80;;;13.73;;
49710;SDS011;35602;44.534;18.696;2022-09-16T13:41:44;20.62;;;16.33;;
49710;SDS011;35602;44.534;18.696;2022-09-16T13:46:46;30.67;;;18.80;;
49710;SDS011;35602;44.534;18.696;2022-09-16T13:51:47;27.65;;;20.75;;
49710;SDS011;35602;44.534;18.696;2022-09-16T14:06:13;31.73;;;20.92;;
49710;SDS011;35602;44.534;18.696;2022-09-16T14:11:42;29.83;;;20.08;;
49710;SDS011;35602;44.534;18.696;2022-09-16T14:19:45;31.05;;;20.60;;
49710;SDS011;35602;44.534;18.696;2022-09-16T14:24:49;31.40;;;19.95;;
49710;SDS011;35602;44.534;18.696;2022-09-16T14:30:00;27.83;;;18.95;;
49710;SDS011;35602;44.534;18.696;2022-09-16T14:35:07;27.15;;;18.92;;
49710;SDS011;35602;44.534;18.696;2022-09-16T14:40:15;25.83;;;18.98;;
49710;SDS011;35602;44.534;18.696;2022-09-16T14:45:22;28.48;;;19.52;;
49710;SDS011;35602;44.534;18.696;2022-09-16T14:50:31;25.05;;;18.33;;
49710;SDS011;35602;44.534;18.696;2022-09-16T14:55:35;25.37;;;18.23;;
49710;SDS011;35602;44.534;18.696;2022-09-16T15:00:41;26.85;;;18.50;;
49710;SDS011;35602;44.534;18.696;2022-09-16T15:05:46;25.98;;;19.45;;
49710;SDS011;35602;44.534;18.696;2022-09-16T15:10:51;23.95;;;17.90;;
49710;SDS011;35602;44.534;18.696;2022-09-16T15:16:01;22.17;;;17.67;;
49710;SDS011;35602;44.534;18.696;2022-09-16T15:21:11;22.75;;;17.20;;
49710;SDS011;35602;44.534;18.696;2022-09-16T15:26:20;22.73;;;16.77;;
49710;SDS011;35602;44.534;18.696;2022-09-16T15:31:28;22.90;;;17.65;;
49710;SDS011;35602;44.534;18.696;2022-09-16T15:36:39;22.50;;;17.30;;
49710;SDS011;35602;44.534;18.696;2022-09-16T15:41:40;21.17;;;16.12;;
49710;SDS011;35602;44.534;18.696;2022-09-16T15:46:44;22.23;;;17.20;;
49710;SDS011;35602;44.534;18.696;2022-09-16T15:51:46;18.70;;;16.65;;
49710;SDS011;35602;44.534;18.696;2022-09-16T15:56:59;22.48;;;17.27;;
49710;SDS011;35602;44.534;18.696;2022-09-16T16:02:04;22.42;;;17.90;;
49710;SDS011;35602;44.534;18.696;2022-09-16T16:12:40;21.00;;;16.67;;
49710;SDS011;35602;44.534;18.696;2022-09-16T16:17:44;18.80;;;16.05;;
49710;SDS011;35602;44.534;18.696;2022-09-16T16:22:46;18.95;;;16.33;;
49710;SDS011;35602;44.534;18.696;2022-09-16T16:27:47;18.08;;;15.65;;
49710;SDS011;35602;44.534;18.696;2022-09-16T16:32:50;19.98;;;16.73;;
49710;SDS011;35602;44.534;18.696;2022-09-16T16:37:51;19.27;;;15.52;;
49710;SDS011;35602;44.534;18.696;2022-09-16T16:42:52;19.25;;;16.27;;
49710;SDS011;35602;44.534;18.696;2022-09-16T16:47:53;18.85;;;15.35;;
49710;SDS011;35602;44.534;18.696;2022-09-16T16:52:54;20.65;;;15.85;;
49710;SDS011;35602;44.534;18.696;2022-09-16T16:57:55;19.87;;;16.02;;
49710;SDS011;35602;44.534;18.696;2022-09-16T17:02:56;17.25;;;15.45;;
49710;SDS011;35602;44.534;18.696;2022-09-16T17:07:57;18.70;;;16.25;;
49710;SDS011;35602;44.534;18.696;2022-09-16T17:12:58;19.10;;;16.58;;
49710;SDS011;35602;44.534;18.696;2022-09-16T17:17:59;21.37;;;15.90;;
49710;SDS011;35602;44.534;18.696;2022-09-16T17:23:02;18.62;;;16.37;;
49710;SDS011;35602;44.534;18.696;2022-09-16T17:28:03;19.95;;;16.98;;
49710;SDS011;35602;44.534;18.696;2022-09-16T17:33:04;18.27;;;16.37;;
49710;SDS011;35602;44.534;18.696;2022-09-16T17:38:05;18.40;;;16.52;;
49710;SDS011;35602;44.534;18.696;2022-09-16T17:43:06;18.23;;;16.42;;
49710;SDS011;35602;44.534;18.696;2022-09-16T17:48:07;17.48;;;15.68;;
49710;SDS011;35602;44.534;18.696;2022-09-16T17:53:07;18.52;;;16.20;;
49710;SDS011;35602;44.534;18.696;2022-09-16T17:58:08;18.70;;;15.38;;
49710;SDS011;35602;44.534;18.696;2022-09-16T18:03:10;18.35;;;15.57;;
49710;SDS011;35602;44.534;18.696;2022-09-16T18:08:11;16.55;;;14.77;;
49710;SDS011;35602;44.534;18.696;2022-09-16T18:13:12;17.80;;;15.65;;
49710;SDS011;35602;44.534;18.696;2022-09-16T18:18:13;17.33;;;15.13;;
49710;SDS011;35602;44.534;18.696;2022-09-16T18:23:16;19.52;;;15.38;;
49710;SDS011;35602;44.534;18.696;2022-09-16T18:28:16;17.40;;;15.45;;
49710;SDS011;35602;44.534;18.696;2022-09-16T18:33:18;15.05;;;13.43;;
49710;SDS011;35602;44.534;18.696;2022-09-16T18:38:18;16.30;;;14.60;;
49710;SDS011;35602;44.534;18.696;2022-09-16T18:43:19;16.48;;;14.73;;
49710;SDS011;35602;44.534;18.696;2022-09-16T18:48:20;16.62;;;14.30;;
49710;SDS011;35602;44.534;18.696;2022-09-16T18:53:21;15.25;;;13.70;;
49710;SDS011;35602;44.534;18.696;2022-09-16T18:58:21;15.60;;;14.00;;
49710;SDS011;35602;44.534;18.696;2022-09-16T19:03:22;15.38;;;13.88;;
49710;SDS011;35602;44.534;18.696;2022-09-16T19:08:23;16.20;;;14.50;;
49710;SDS011;35602;44.534;18.696;2022-09-16T19:13:24;15.00;;;13.50;;
49710;SDS011;35602;44.534;18.696;2022-09-16T19:18:25;14.98;;;13.48;;
49710;SDS011;35602;44.534;18.696;2022-09-16T19:23:31;13.82;;;12.43;;
49710;SDS011;35602;44.534;18.696;2022-09-16T19:28:31;14.20;;;12.63;;
49710;SDS011;35602;44.534;18.696;2022-09-16T19:33:33;14.27;;;12.77;;
49710;SDS011;35602;44.534;18.696;2022-09-16T19:38:35;12.93;;;11.70;;
49710;SDS011;35602;44.534;18.696;2022-09-16T19:43:36;14.13;;;12.73;;
49710;SDS011;35602;44.534;18.696;2022-09-16T19:48:38;14.15;;;12.57;;
49710;SDS011;35602;44.534;18.696;2022-09-16T19:53:41;12.70;;;11.40;;
49710;SDS011;35602;44.534;18.696;2022-09-16T19:58:42;13.62;;;12.13;;
49710;SDS011;35602;44.534;18.696;2022-09-16T20:03:43;12.82;;;11.52;;
49710;SDS011;35602;44.534;18.696;2022-09-16T20:08:45;13.45;;;12.05;;
49710;SDS011;35602;44.534;18.696;2022-09-16T20:13:47;13.55;;;12.15;;
49710;SDS011;35602;44.534;18.696;2022-09-16T20:18:57;14.55;;;11.57;;
49710;SDS011;35602;44.534;18.696;2022-09-16T20:23:58;12.15;;;10.95;;
49710;SDS011;35602;44.534;18.696;2022-09-16T20:29:00;12.37;;;11.10;;
49710;SDS011;35602;44.534;18.696;2022-09-16T20:34:02;11.15;;;10.10;;
49710;SDS011;35602;44.534;18.696;2022-09-16T20:39:04;11.60;;;10.27;;
49710;SDS011;35602;44.534;18.696;2022-09-16T20:44:06;11.65;;;10.45;;
49710;SDS011;35602;44.534;18.696;2022-09-16T20:49:12;12.37;;;10.23;;
49710;SDS011;35602;44.534;18.696;2022-09-16T20:54:14;11.45;;;10.25;;
49710;SDS011;35602;44.534;18.696;2022-09-16T20:59:16;11.07;;;9.98;;
49710;SDS011;35602;44.534;18.696;2022-09-16T21:04:19;11.20;;;10.10;;
49710;SDS011;35602;44.534;18.696;2022-09-16T21:09:20;9.93;;;8.93;;
49710;SDS011;35602;44.534;18.696;2022-09-16T21:14:21;10.05;;;9.05;;
49710;SDS011;35602;44.534;18.696;2022-09-16T21:19:22;10.75;;;9.10;;
49710;SDS011;35602;44.534;18.696;2022-09-16T21:24:23;10.73;;;9.63;;
49710;SDS011;35602;44.534;18.696;2022-09-16T21:29:24;10.40;;;9.30;;
49710;SDS011;35602;44.534;18.696;2022-09-16T21:34:25;9.95;;;9.00;;
49710;SDS011;35602;44.534;18.696;2022-09-16T21:39:26;9.70;;;8.80;;
49710;SDS011;35602;44.534;18.696;2022-09-16T21:44:27;9.50;;;8.50;;
49710;SDS011;35602;44.534;18.696;2022-09-16T21:49:28;9.35;;;8.45;;
49710;SDS011;35602;44.534;18.696;2022-09-16T21:54:29;9.00;;;8.10;;
49710;SDS011;35602;44.534;18.696;2022-09-16T21:59:31;10.20;;;8.93;;
49710;SDS011;35602;44.534;18.696;2022-09-16T22:04:32;9.48;;;8.50;;
49710;SDS011;35602;44.534;18.696;2022-09-16T22:09:32;9.82;;;8.82;;
49710;SDS011;35602;44.534;18.696;2022-09-16T22:14:33;8.57;;;7.78;;
49710;SDS011;35602;44.534;18.696;2022-09-16T22:19:34;9.13;;;8.32;;
49710;SDS011;35602;44.534;18.696;2022-09-16T22:24:35;9.07;;;8.27;;
49710;SDS011;35602;44.534;18.696;2022-09-16T22:29:36;9.27;;;8.27;;
49710;SDS011;35602;44.534;18.696;2022-09-16T22:34:37;8.43;;;7.62;;
49710;SDS011;35602;44.534;18.696;2022-09-16T22:39:38;8.70;;;7.85;;
49710;SDS011;35602;44.534;18.696;2022-09-16T22:44:38;8.80;;;7.90;;
49710;SDS011;35602;44.534;18.696;2022-09-16T22:49:39;8.48;;;7.68;;
49710;SDS011;35602;44.534;18.696;2022-09-16T22:54:40;8.30;;;7.50;;
49710;SDS011;35602;44.534;18.696;2022-09-16T22:59:41;8.50;;;7.65;;
49710;SDS011;35602;44.534;18.696;2022-09-16T23:04:42;8.60;;;7.90;;
49710;SDS011;35602;44.534;18.696;2022-09-16T23:09:43;8.15;;;7.35;;
49710;SDS011;35602;44.534;18.696;2022-09-16T23:14:43;7.93;;;7.22;;
49710;SDS011;35602;44.534;18.696;2022-09-16T23:19:44;8.68;;;7.87;;
49710;SDS011;35602;44.534;18.696;2022-09-16T23:24:45;7.82;;;7.12;;
49710;SDS011;35602;44.534;18.696;2022-09-16T23:29:46;7.80;;;7.10;;
49710;SDS011;35602;44.534;18.696;2022-09-16T23:34:46;8.18;;;7.47;;
49710;SDS011;35602;44.534;18.696;2022-09-16T23:39:48;7.68;;;6.97;;
49710;SDS011;35602;44.534;18.696;2022-09-16T23:44:49;7.50;;;6.80;;
49710;SDS011;35602;44.534;18.696;2022-09-16T23:49:49;7.95;;;7.15;;
49710;SDS011;35602;44.534;18.696;2022-09-16T23:54:52;7.87;;;7.18;;
49710;SDS011;35602;44.534;18.696;2022-09-16T23:59:53;7.95;;;7.10;;
